createdAt,value
2018-06-05T00:01:04.811Z,96242.13
2018-06-05T00:03:34.880Z,96246.41
2018-06-05T00:06:04.874Z,96248.29
2018-06-05T00:08:34.901Z,96246.81
2018-06-05T00:11:04.833Z,96239.47
2018-06-05T00:13:34.883Z,96237.40
2018-06-05T00:16:04.967Z,96240.35
2018-06-05T00:18:35.013Z,96243.71
2018-06-05T00:21:04.996Z,96247.20
2018-06-05T00:23:35.043Z,96242.05
2018-06-05T00:26:05.021Z,96249.70
2018-06-05T00:28:38.826Z,96242.14
2018-06-05T00:31:09.788Z,96255.14
2018-06-05T00:33:38.974Z,96253.13
2018-06-05T00:36:08.146Z,96251.99
2018-06-05T00:38:37.415Z,96253.03
2018-06-05T00:41:11.215Z,96254.41
2018-06-05T00:43:40.326Z,96256.98
2018-06-05T00:46:15.056Z,96258.77
2018-06-05T00:48:44.201Z,96251.61
2018-06-05T00:51:24.444Z,96254.16
2018-06-05T00:53:53.615Z,96251.58
2018-06-05T00:56:22.746Z,96255.47
2018-06-05T00:58:51.846Z,96255.03
2018-06-05T01:01:22.529Z,96259.30
2018-06-05T01:03:51.734Z,96262.62
2018-06-05T01:06:20.848Z,96263.41
2018-06-05T01:08:50.086Z,96269.34
2018-06-05T01:11:22.512Z,96264.03
2018-06-05T01:13:51.670Z,96271.59
2018-06-05T01:16:20.838Z,96269.63
2018-06-05T01:18:49.962Z,96266.16
2018-06-05T01:21:19.254Z,96267.56
2018-06-05T01:23:49.018Z,96268.47
2018-06-05T01:26:18.232Z,96269.34
2018-06-05T01:28:47.361Z,96268.55
2018-06-05T01:31:16.447Z,96273.03
2018-06-05T01:33:45.670Z,96266.30
2018-06-05T01:36:14.798Z,96264.77
2018-06-05T01:38:43.932Z,96266.60
2018-06-05T01:41:14.491Z,96259.82
2018-06-05T01:43:43.679Z,96258.16
2018-06-05T01:46:12.831Z,96257.89
2018-06-05T01:48:41.947Z,96255.41
2018-06-05T01:51:11.090Z,96255.16
2018-06-05T01:53:40.286Z,96257.80
2018-06-05T01:56:09.452Z,96258.75
2018-06-05T01:58:45.784Z,96255.77
2018-06-05T02:01:15.188Z,96254.98
2018-06-05T02:03:44.296Z,96255.48
2018-06-05T02:06:14.289Z,96257.55
2018-06-05T02:08:43.380Z,96260.13
2018-06-05T02:11:13.205Z,96263.19
2018-06-05T02:13:42.361Z,96263.30
2018-06-05T02:16:21.123Z,96262.02
2018-06-05T02:18:50.334Z,96262.52
2018-06-05T02:21:19.519Z,96261.84
2018-06-05T02:23:48.697Z,96260.25
2018-06-05T02:26:18.635Z,96259.45
2018-06-05T02:28:49.520Z,96260.36
2018-06-05T02:31:18.637Z,96252.77
2018-06-05T02:33:47.810Z,96257.06
2018-06-05T02:36:17.005Z,96260.06
2018-06-05T02:38:49.914Z,96264.94
2018-06-05T02:41:19.063Z,96265.53
2018-06-05T02:43:48.177Z,96274.41
2018-06-05T02:46:17.321Z,96278.06
2018-06-05T02:48:46.465Z,96281.36
2018-06-05T02:51:20.332Z,96285.43
2018-06-05T02:53:49.427Z,96284.58
2018-06-05T02:56:22.045Z,96284.32
2018-06-05T02:58:51.177Z,96287.79
2018-06-05T03:01:20.316Z,96287.32
2018-06-05T03:03:49.494Z,96293.25
2018-06-05T03:06:18.665Z,96296.72
2018-06-05T03:08:47.801Z,96294.00
2018-06-05T03:11:17.089Z,96299.86
2018-06-05T03:13:46.205Z,96298.45
2018-06-05T03:16:15.389Z,96301.70
2018-06-05T03:18:44.557Z,96302.04
2018-06-05T03:21:14.093Z,96307.76
2018-06-05T03:23:44.286Z,96310.00
2018-06-05T03:26:13.608Z,96309.23
2018-06-05T03:28:42.761Z,96314.85
2018-06-05T03:31:12.681Z,96315.72
2018-06-05T03:33:41.873Z,96313.95
2018-06-05T03:36:11.053Z,96322.72
2018-06-05T03:38:41.039Z,96324.16
2018-06-05T03:41:18.545Z,96323.41
2018-06-05T03:43:47.727Z,96328.20
2018-06-05T03:46:16.883Z,96332.67
2018-06-05T03:48:53.345Z,96339.17
2018-06-05T03:51:23.811Z,96343.02
2018-06-05T03:54:02.403Z,96337.89
2018-06-05T03:56:32.654Z,96340.45
2018-06-05T03:59:01.710Z,96340.36
2018-06-05T04:01:30.846Z,96341.17
2018-06-05T04:04:01.729Z,96343.73
2018-06-05T04:06:30.914Z,96340.30
2018-06-05T04:09:01.149Z,96333.42
2018-06-05T04:11:30.385Z,96339.83
2018-06-05T04:13:59.991Z,96344.45
2018-06-05T04:16:29.314Z,96341.87
2018-06-05T04:18:59.200Z,96346.06
2018-06-05T04:21:28.372Z,96352.73
2018-06-05T04:23:57.478Z,96348.02
2018-06-05T04:26:26.717Z,96352.59
2018-06-05T04:28:55.860Z,96357.47
2018-06-05T04:31:25.170Z,96355.62
2018-06-05T04:33:54.292Z,96358.73
2018-06-05T04:36:23.594Z,96362.38
2018-06-05T04:38:52.840Z,96359.28
2018-06-05T04:41:22.042Z,96351.88
2018-06-05T04:43:51.217Z,96354.11
2018-06-05T04:46:20.380Z,96349.84
2018-06-05T04:48:49.596Z,96360.65
2018-06-05T04:51:18.824Z,96354.13
2018-06-05T04:53:48.360Z,96360.70
2018-06-05T04:56:17.506Z,96354.95
2018-06-05T04:58:47.276Z,96357.69
2018-06-05T05:01:16.397Z,96351.47
2018-06-05T05:03:45.532Z,96363.23
2018-06-05T05:06:14.658Z,96360.11
2018-06-05T05:08:44.255Z,96353.15
2018-06-05T05:11:13.346Z,96359.30
2018-06-05T05:13:42.458Z,96362.59
2018-06-05T05:16:17.639Z,96356.86
2018-06-05T05:18:46.724Z,96361.35
2018-06-05T05:21:15.813Z,96356.95
2018-06-05T05:23:44.903Z,96357.15
2018-06-05T05:26:13.995Z,96365.05
2018-06-05T05:28:43.102Z,96369.52
2018-06-05T05:31:12.222Z,96374.00
2018-06-05T05:33:46.670Z,96378.93
2018-06-05T05:36:15.837Z,96382.07
2018-06-05T05:38:44.978Z,96379.80
2018-06-05T05:41:14.137Z,96380.89
2018-06-05T05:43:43.263Z,96383.23
2018-06-05T05:46:13.629Z,96375.44
2018-06-05T05:48:42.814Z,96376.98
2018-06-05T05:51:15.200Z,96373.77
2018-06-05T05:53:44.396Z,96373.09
2018-06-05T05:56:19.529Z,96379.33
2018-06-05T05:58:48.886Z,96377.92
2018-06-05T06:01:27.965Z,96378.51
2018-06-05T06:03:57.145Z,96380.84
2018-06-05T06:06:27.066Z,96379.63
2018-06-05T06:08:56.218Z,96379.77
2018-06-05T06:11:25.354Z,96381.73
2018-06-05T06:13:54.455Z,96377.59
2018-06-05T06:16:23.688Z,96377.84
2018-06-05T06:18:52.851Z,96380.98
2018-06-05T06:21:22.139Z,96385.86
2018-06-05T06:23:51.282Z,96388.66
2018-06-05T06:26:27.932Z,96385.44
2018-06-05T06:28:57.080Z,96386.76
2018-06-05T06:31:26.192Z,96392.06
2018-06-05T06:33:59.296Z,96389.53
2018-06-05T06:36:28.482Z,96385.81
2018-06-05T06:38:58.376Z,96393.32
2018-06-05T06:41:32.974Z,96392.17
2018-06-05T06:44:13.206Z,96392.72
2018-06-05T06:46:42.290Z,96391.70
2018-06-05T06:49:11.427Z,96392.21
2018-06-05T06:51:40.544Z,96393.37
2018-06-05T06:54:10.113Z,96391.06
2018-06-05T06:56:40.005Z,96391.59
2018-06-05T06:59:09.985Z,96389.92
2018-06-05T07:01:39.073Z,96389.84
2018-06-05T07:04:08.312Z,96387.09
2018-06-05T07:06:37.493Z,96390.20
2018-06-05T07:09:08.771Z,96390.46
2018-06-05T07:11:37.958Z,96385.56
2018-06-05T07:14:07.092Z,96391.98
2018-06-05T07:16:36.255Z,96386.80
2018-06-05T07:19:05.407Z,96393.00
2018-06-05T07:21:34.688Z,96393.70
2018-06-05T07:24:03.907Z,96391.97
2018-06-05T07:26:33.065Z,96393.99
2018-06-05T07:29:02.197Z,96394.55
2018-06-05T07:31:31.340Z,96386.45
2018-06-05T07:34:00.539Z,96393.80
2018-06-05T07:36:29.661Z,96384.18
2018-06-05T07:38:58.872Z,96385.80
2018-06-05T07:41:33.890Z,96387.04
2018-06-05T07:44:03.129Z,96381.59
2018-06-05T07:46:32.282Z,96382.06
2018-06-05T07:49:01.445Z,96381.98
2018-06-05T07:51:30.572Z,96378.42
2018-06-05T07:53:59.769Z,96379.66
2018-06-05T07:56:28.973Z,96376.02
2018-06-05T07:59:03.607Z,96383.87
2018-06-05T08:01:32.824Z,96375.82
2018-06-05T08:04:02.031Z,96378.33
2018-06-05T08:06:34.751Z,96380.66
2018-06-05T08:09:04.129Z,96385.39
2018-06-05T08:11:33.995Z,96379.20
2018-06-05T08:14:03.355Z,96374.58
2018-06-05T08:16:32.490Z,96371.67
2018-06-05T08:19:01.662Z,96370.45
2018-06-05T08:21:30.939Z,96373.66
2018-06-05T08:24:01.039Z,96378.52
2018-06-05T08:27:01.115Z,96373.94
2018-06-05T08:29:30.207Z,96372.19
2018-06-05T08:32:02.624Z,96369.38
2018-06-05T08:34:31.732Z,96374.00
2018-06-05T08:37:00.877Z,96376.21
2018-06-05T08:39:29.989Z,96374.78
2018-06-05T08:41:59.225Z,96378.50
2018-06-05T08:44:28.429Z,96375.12
2018-06-05T08:46:57.535Z,96373.42
2018-06-05T08:49:26.713Z,96371.59
2018-06-05T08:51:55.851Z,96371.28
2018-06-05T08:54:25.014Z,96370.94
2018-06-05T08:56:54.141Z,96365.75
2018-06-05T08:59:23.821Z,96373.63
2018-06-05T09:01:52.949Z,96371.30
2018-06-05T09:04:22.089Z,96368.55
2018-06-05T09:06:51.226Z,96371.80
2018-06-05T09:09:25.960Z,96368.48
2018-06-05T09:11:55.143Z,96373.35
2018-06-05T09:14:24.367Z,96369.09
2018-06-05T09:16:59.615Z,96371.39
2018-06-05T09:19:28.747Z,96374.70
2018-06-05T09:21:58.046Z,96371.50
2018-06-05T09:24:37.733Z,96373.60
2018-06-05T09:27:06.872Z,96371.96
2018-06-05T09:29:36.275Z,96366.22
2018-06-05T09:32:05.456Z,96372.74
2018-06-05T09:34:34.722Z,96368.88
2018-06-05T09:37:03.869Z,96358.16
2018-06-05T09:39:33.089Z,96365.31
2018-06-05T09:42:02.291Z,96360.36
2018-06-05T09:44:31.478Z,96362.14
2018-06-05T09:47:00.637Z,96358.48
2018-06-05T09:49:29.790Z,96355.31
2018-06-05T09:51:59.126Z,96349.39
2018-06-05T09:54:28.291Z,96352.97
2018-06-05T09:56:57.531Z,96353.66
2018-06-05T09:59:26.715Z,96359.23
2018-06-05T10:01:55.957Z,96365.52
2018-06-05T10:04:25.154Z,96354.61
2018-06-05T10:07:04.108Z,96353.23
2018-06-05T10:09:33.252Z,96357.54
2018-06-05T10:12:02.468Z,96357.20
2018-06-05T10:14:37.200Z,96351.95
2018-06-05T10:17:06.385Z,96358.23
2018-06-05T10:19:35.586Z,96353.43
2018-06-05T10:22:04.765Z,96354.73
2018-06-05T10:24:33.933Z,96354.30
2018-06-05T10:27:03.105Z,96351.44
2018-06-05T10:29:37.684Z,96352.88
2018-06-05T10:32:06.849Z,96350.42
2018-06-05T10:34:36.136Z,96343.50
2018-06-05T10:37:05.522Z,96341.96
2018-06-05T10:39:34.632Z,96339.32
2018-06-05T10:42:03.915Z,96338.58
2018-06-05T10:44:33.035Z,96332.45
2018-06-05T10:47:02.803Z,96333.50
2018-06-05T10:49:35.872Z,96325.69
2018-06-05T10:52:05.120Z,96336.72
2018-06-05T10:54:34.276Z,96341.57
2018-06-05T10:57:03.425Z,96340.84
2018-06-05T10:59:32.617Z,96341.81
2018-06-05T11:02:01.751Z,96335.19
2018-06-05T11:04:30.884Z,96327.84
2018-06-05T11:07:00.060Z,96332.06
2018-06-05T11:09:29.258Z,96325.60
2018-06-05T11:11:58.556Z,96328.14
2018-06-05T11:14:27.752Z,96320.22
2018-06-05T11:16:57.019Z,96321.61
2018-06-05T11:19:26.176Z,96317.41
2018-06-05T11:21:55.308Z,96316.94
2018-06-05T11:24:24.490Z,96312.37
2018-06-05T11:26:53.620Z,96311.13
2018-06-05T11:29:22.836Z,96313.66
2018-06-05T11:31:51.976Z,96307.16
2018-06-05T11:34:21.898Z,96309.69
2018-06-05T11:36:52.094Z,96313.44
2018-06-05T11:39:31.153Z,96306.13
2018-06-05T11:42:01.099Z,96303.38
2018-06-05T11:44:30.209Z,96300.00
2018-06-05T11:46:59.416Z,96293.35
2018-06-05T11:49:28.544Z,96292.55
2018-06-05T11:51:57.746Z,96287.75
2018-06-05T11:54:26.885Z,96286.26
2018-06-05T11:56:55.975Z,96281.27
2018-06-05T11:59:25.736Z,96288.33
2018-06-05T12:01:54.976Z,96277.28
2018-06-05T12:04:24.132Z,96276.05
2018-06-05T12:06:53.289Z,96280.46
2018-06-05T12:09:22.365Z,96271.06
2018-06-05T12:11:55.208Z,96277.89
2018-06-05T12:14:25.125Z,96273.23
2018-06-05T12:16:54.308Z,96267.34
2018-06-05T12:19:23.578Z,96261.69
2018-06-05T12:21:52.745Z,96250.33
2018-06-05T12:24:24.152Z,96258.08
2018-06-05T12:26:53.345Z,96258.45
2018-06-05T12:29:22.468Z,96249.59
2018-06-05T12:31:51.623Z,96249.25
2018-06-05T12:34:20.754Z,96250.48
2018-06-05T12:36:51.144Z,96250.80
2018-06-05T12:39:20.362Z,96241.09
2018-06-05T12:41:49.627Z,96244.19
2018-06-05T12:44:25.088Z,96240.24
2018-06-05T12:46:54.203Z,96236.22
2018-06-05T12:49:23.335Z,96230.98
2018-06-05T12:51:53.717Z,96224.59
2018-06-05T12:54:22.936Z,96221.76
2018-06-05T12:56:52.102Z,96218.11
2018-06-05T12:59:21.263Z,96218.49
2018-06-05T13:01:50.417Z,96217.52
2018-06-05T13:04:19.601Z,96213.25
2018-06-05T13:06:48.746Z,96211.70
2018-06-05T13:09:21.796Z,96208.70
2018-06-05T13:11:50.965Z,96212.97
2018-06-05T13:14:20.119Z,96210.14
2018-06-05T13:16:49.252Z,96208.83
2018-06-05T13:19:18.400Z,96217.14
2018-06-05T13:21:47.466Z,96206.14
2018-06-05T13:24:16.557Z,96205.01
2018-06-05T13:26:45.710Z,96197.31
2018-06-05T13:29:15.579Z,96190.05
2018-06-05T13:32:03.333Z,96198.13
2018-06-05T13:34:32.526Z,96192.75
2018-06-05T13:37:04.593Z,96197.20
2018-06-05T13:39:33.850Z,96196.11
2018-06-05T13:42:03.388Z,96184.29
2018-06-05T13:44:42.199Z,96192.05
2018-06-05T13:47:11.322Z,96190.45
2018-06-05T13:49:40.481Z,96188.89
2018-06-05T13:52:11.745Z,96181.52
2018-06-05T13:54:40.992Z,96175.16
2018-06-05T13:57:10.126Z,96176.41
2018-06-05T13:59:39.278Z,96186.55
2018-06-05T14:02:08.447Z,96170.89
2018-06-05T14:04:37.667Z,96172.13
2018-06-05T14:07:06.859Z,96180.90
2018-06-05T14:09:36.034Z,96177.44
2018-06-05T14:12:06.238Z,96173.22
2018-06-05T14:14:35.331Z,96171.72
2018-06-05T14:17:04.421Z,96171.60
2018-06-05T14:19:33.533Z,96170.86
2018-06-05T14:22:02.663Z,96175.33
2018-06-05T14:24:31.779Z,96172.91
2018-06-05T14:27:00.921Z,96169.38
2018-06-05T14:29:30.013Z,96169.73
2018-06-05T14:31:59.183Z,96155.91
2018-06-05T14:34:31.756Z,96155.45
2018-06-05T14:37:00.945Z,96161.89
2018-06-05T14:39:31.108Z,96163.40
2018-06-05T14:42:00.258Z,96163.93
2018-06-05T14:44:29.389Z,96167.63
2018-06-05T14:46:58.569Z,96173.34
2018-06-05T14:49:27.733Z,96171.64
2018-06-05T14:51:56.879Z,96155.02
2018-06-05T14:54:26.063Z,96155.48
2018-06-05T14:56:55.271Z,96162.24
2018-06-05T14:59:31.229Z,96158.42
2018-06-05T15:02:00.520Z,96165.16
2018-06-05T15:04:29.684Z,96159.87
2018-06-05T15:06:58.875Z,96158.93
2018-06-05T15:09:28.032Z,96163.17
2018-06-05T15:12:01.298Z,96158.37
2018-06-05T15:14:30.664Z,96156.88
2018-06-05T15:16:59.867Z,96156.33
2018-06-05T15:19:29.002Z,96149.31
2018-06-05T15:21:58.119Z,96152.71
2018-06-05T15:24:27.359Z,96158.38
2018-06-05T15:26:56.545Z,96152.66
2018-06-05T15:29:25.658Z,96156.77
2018-06-05T15:31:54.771Z,96155.30
2018-06-05T15:34:23.803Z,96155.48
2018-06-05T15:36:52.973Z,96161.26
2018-06-05T15:39:22.089Z,96156.17
2018-06-05T15:41:51.291Z,96161.35
2018-06-05T15:44:20.398Z,96158.50
2018-06-05T15:46:49.527Z,96157.76
2018-06-05T15:49:18.691Z,96161.81
2018-06-05T15:51:47.846Z,96161.13
2018-06-05T15:54:20.668Z,96165.40
2018-06-05T15:56:49.837Z,96176.59
2018-06-05T15:59:18.957Z,96168.31
2018-06-05T16:01:48.057Z,96167.73
2018-06-05T16:04:17.232Z,96170.37
2018-06-05T16:06:46.346Z,96172.61
2018-06-05T16:19:04.765Z,96171.94
2018-06-05T16:21:33.858Z,96166.50
2018-06-05T16:24:03.148Z,96162.50
2018-06-05T16:26:32.255Z,96175.22
2018-06-05T16:29:01.500Z,96168.36
2018-06-05T16:31:30.969Z,96170.16
2018-06-05T16:34:00.074Z,96168.58
2018-06-05T16:36:29.193Z,96174.95
2018-06-05T16:38:58.382Z,96168.20
2018-06-05T16:41:27.622Z,96176.86
2018-06-05T16:43:56.763Z,96173.66
2018-06-05T16:46:25.967Z,96172.22
2018-06-05T16:48:55.107Z,96171.73
2018-06-05T16:51:24.251Z,96175.87
2018-06-05T16:53:53.319Z,96171.59
2018-06-05T16:56:22.499Z,96171.39
2018-06-05T16:58:51.590Z,96179.09
2018-06-05T17:01:20.739Z,96176.58
2018-06-05T17:03:50.058Z,96179.17
2018-06-05T17:06:19.264Z,96180.23
2018-06-05T17:08:48.430Z,96182.53
2018-06-05T17:11:21.111Z,96173.20
2018-06-05T17:13:50.322Z,96179.74
2018-06-05T17:16:20.434Z,96177.91
2018-06-05T17:18:49.507Z,96181.05
2018-06-05T17:21:18.612Z,96178.25
2018-06-05T17:23:48.120Z,96183.08
2018-06-05T17:26:21.655Z,96175.87
2018-06-05T17:28:50.788Z,96178.33
2018-06-05T17:31:20.028Z,96179.85
2018-06-05T17:33:49.236Z,96183.83
2018-06-05T17:36:18.389Z,96183.44
2018-06-05T17:38:48.249Z,96183.95
2018-06-05T17:41:18.480Z,96187.81
2018-06-05T17:43:48.364Z,96185.55
2018-06-05T17:46:18.483Z,96185.30
2018-06-05T17:48:48.502Z,96179.29
2018-06-05T17:51:18.450Z,96188.18
2018-06-05T17:53:48.420Z,96182.27
2018-06-05T17:56:21.785Z,96188.50
2018-06-05T17:58:50.987Z,96184.42
2018-06-05T18:01:20.114Z,96189.74
2018-06-05T18:03:49.349Z,96191.09
2018-06-05T18:06:18.564Z,96191.91
2018-06-05T18:08:48.581Z,96189.06
2018-06-05T18:11:19.496Z,96194.08
2018-06-05T18:13:48.728Z,96194.33
2018-06-05T18:16:17.869Z,96201.43
2018-06-05T18:18:47.036Z,96200.88
2018-06-05T18:21:16.558Z,96203.65
2018-06-05T18:23:45.754Z,96208.31
2018-06-05T18:26:15.896Z,96207.02
2018-06-05T18:28:45.091Z,96205.98
2018-06-05T18:31:15.063Z,96201.83
2018-06-05T18:33:44.222Z,96205.53
2018-06-05T18:36:13.532Z,96208.48
2018-06-05T18:38:42.688Z,96205.20
2018-06-05T18:41:12.027Z,96211.43
2018-06-05T18:43:41.334Z,96214.77
2018-06-05T18:46:10.566Z,96220.87
2018-06-05T18:48:39.821Z,96229.00
2018-06-05T18:54:00.993Z,96226.56
2018-06-05T18:56:30.134Z,96233.04
2018-06-05T18:58:59.659Z,96232.72
2018-06-05T19:01:28.839Z,96235.02
2018-06-05T19:03:58.051Z,96244.77
2018-06-05T19:06:32.758Z,96245.13
2018-06-05T19:09:01.899Z,96253.24
2018-06-05T19:13:54.779Z,96253.00
2018-06-05T19:16:24.013Z,96261.89
2018-06-05T19:18:53.188Z,96260.56
2018-06-05T19:21:22.472Z,96271.07
2018-06-05T19:23:51.778Z,96275.67
2018-06-05T19:26:21.095Z,96277.52
2018-06-05T19:28:50.299Z,96281.18
2018-06-05T19:31:29.454Z,96287.47
2018-06-05T19:33:58.672Z,96295.56
2018-06-05T19:36:27.860Z,96298.47
2018-06-05T19:38:57.106Z,96304.72
2018-06-05T19:41:26.312Z,96298.92
2018-06-05T19:43:55.673Z,96303.52
2018-06-05T19:46:24.870Z,96307.73
2018-06-05T19:48:54.031Z,96324.88
2018-06-05T19:51:23.243Z,96318.94
2018-06-05T19:53:52.575Z,96325.19
2018-06-05T19:56:21.696Z,96329.64
2018-06-05T19:58:50.827Z,96325.20
2018-06-05T20:01:20.881Z,96328.41
2018-06-05T20:03:50.040Z,96334.66
2018-06-05T20:06:19.254Z,96336.64
2018-06-05T20:08:50.080Z,96336.04
2018-06-05T20:11:19.262Z,96337.18
2018-06-05T20:13:48.485Z,96342.60
2018-06-05T20:16:23.521Z,96344.16
2018-06-05T20:18:52.742Z,96343.02
2018-06-05T20:21:22.488Z,96339.43
2018-06-05T20:23:52.574Z,96347.80
2018-06-05T20:26:26.161Z,96345.05
2018-06-05T20:28:55.422Z,96348.69
2018-06-05T20:31:24.585Z,96349.38
2018-06-05T20:33:53.770Z,96348.00
2018-06-05T20:36:23.032Z,96351.35
2018-06-05T20:38:52.738Z,96361.86
2018-06-05T20:41:23.167Z,96357.73
2018-06-05T20:43:52.760Z,96363.95
2018-06-05T20:46:22.767Z,96359.98
2018-06-05T20:48:53.246Z,96366.35
2018-06-05T20:51:22.766Z,96362.38
2018-06-05T20:53:52.761Z,96363.58
2018-06-05T20:56:23.777Z,96364.73
2018-06-05T20:58:53.078Z,96367.66
2018-06-05T21:01:25.910Z,96367.48
2018-06-05T21:03:55.045Z,96371.58
2018-06-05T21:06:24.262Z,96371.00
2018-06-05T21:08:53.366Z,96373.87
2018-06-05T21:11:24.461Z,96383.58
2018-06-05T21:13:53.680Z,96381.26
2018-06-05T21:16:23.037Z,96382.80
2018-06-05T21:18:53.090Z,96385.27
2018-06-05T21:21:23.276Z,96382.05
2018-06-05T21:23:53.359Z,96389.17
2018-06-05T21:26:24.228Z,96386.73
2018-06-05T21:28:53.418Z,96389.39
2018-06-05T21:31:23.250Z,96382.70
2018-06-05T21:33:53.300Z,96389.27
2018-06-05T21:36:23.413Z,96392.36
2018-06-05T21:38:53.311Z,96392.50
2018-06-05T21:41:28.367Z,96396.00
2018-06-05T21:43:57.555Z,96397.39
2018-06-05T21:46:26.692Z,96403.07
2018-06-05T21:48:55.836Z,96398.05
2018-06-05T21:51:25.349Z,96402.56
2018-06-05T21:53:54.450Z,96407.46
2018-06-05T21:56:23.690Z,96404.16
2018-06-05T21:58:55.283Z,96402.02
2018-06-05T22:01:30.259Z,96405.66
2018-06-05T22:03:59.433Z,96399.82
2018-06-05T22:06:28.504Z,96401.75
2018-06-05T22:08:57.601Z,96401.89
2018-06-05T22:11:26.726Z,96399.04
2018-06-05T22:13:55.836Z,96396.19
2018-06-05T22:16:25.620Z,96403.17
2018-06-05T22:18:54.793Z,96400.59
2018-06-05T22:21:23.874Z,96398.89
2018-06-05T22:23:53.779Z,96399.03
2018-06-05T22:26:29.501Z,96391.29
2018-06-05T22:28:59.534Z,96392.17
2018-06-05T22:31:28.705Z,96396.58
2018-06-05T22:33:57.911Z,96399.16
2018-06-05T22:36:27.043Z,96396.61
2018-06-05T22:38:56.515Z,96400.95
2018-06-05T22:41:26.527Z,96394.10
2018-06-05T22:43:56.557Z,96398.48
2018-06-05T22:46:26.530Z,96387.10
2018-06-05T22:48:56.713Z,96393.52
2018-06-05T22:51:26.800Z,96393.61
2018-06-05T22:53:56.671Z,96395.34
2018-06-05T22:56:26.713Z,96398.81
2018-06-05T22:58:57.391Z,96397.27
2018-06-05T23:01:26.832Z,96395.70
2018-06-05T23:03:56.788Z,96398.28
2018-06-05T23:06:26.739Z,96394.48
2018-06-05T23:08:56.929Z,96391.69
2018-06-05T23:11:26.899Z,96393.35
2018-06-05T23:13:56.955Z,96388.20
2018-06-05T23:16:26.947Z,96396.78
2018-06-05T23:18:56.983Z,96392.56
2018-06-05T23:21:28.507Z,96387.54
2018-06-05T23:23:57.645Z,96391.91
2018-06-05T23:26:27.113Z,96395.50
2018-06-05T23:29:02.317Z,96396.03
2018-06-05T23:31:31.484Z,96399.12
2018-06-05T23:34:00.669Z,96397.55
2018-06-05T23:36:29.819Z,96400.25
2018-06-05T23:38:58.939Z,96401.13
2018-06-05T23:41:28.152Z,96400.34
2018-06-05T23:43:57.359Z,96396.98
2018-06-05T23:46:27.367Z,96393.36
2018-06-05T23:48:57.385Z,96397.23
2018-06-05T23:51:28.192Z,96396.06
2018-06-05T23:53:57.434Z,96399.02
2018-06-05T23:56:27.481Z,96400.44
2018-06-05T23:58:57.427Z,96397.45
